sensor_id;sensor_type;location;lat;lon;timestamp;pressure;altitude;pressure_sealevel;temperature;humidity
61961;BME280;47923;42.506;24.192;2023-03-01T00:01:24;96169.09;;;3.65;100.00
61961;BME280;47923;42.506;24.192;2023-03-01T00:03:51;96167.22;;;3.65;100.00
61961;BME280;47923;42.506;24.192;2023-03-01T00:06:17;96064.91;;;3.10;100.00
61961;BME280;47923;42.506;24.192;2023-03-01T00:08:43;95947.97;;;2.38;100.00
61961;BME280;47923;42.506;24.192;2023-03-01T00:11:12;96145.84;;;3.65;100.00
61961;BME280;47923;42.506;24.192;2023-03-01T00:13:39;96146.16;;;3.64;100.00
61961;BME280;47923;42.506;24.192;2023-03-01T00:16:06;96138.91;;;3.64;100.00
61961;BME280;47923;42.506;24.192;2023-03-01T00:18:33;96036.22;;;3.01;100.00
61961;BME280;47923;42.506;24.192;2023-03-01T00:20:58;96136.53;;;3.63;100.00
61961;BME280;47923;42.506;24.192;2023-03-01T00:23:25;95877.88;;;1.91;100.00
61961;BME280;47923;42.506;24.192;2023-03-01T00:25:50;96132.38;;;3.56;100.00
61961;BME280;47923;42.506;24.192;2023-03-01T00:28:17;96132.09;;;3.58;100.00
61961;BME280;47923;42.506;24.192;2023-03-01T00:30:42;96128.81;;;3.47;100.00
61961;BME280;47923;42.506;24.192;2023-03-01T00:33:08;96111.00;;;3.29;100.00
61961;BME280;47923;42.506;24.192;2023-03-01T00:35:34;96100.91;;;3.26;100.00
61961;BME280;47923;42.506;24.192;2023-03-01T00:38:00;96099.63;;;3.23;100.00
61961;BME280;47923;42.506;24.192;2023-03-01T00:40:28;96121.78;;;3.38;100.00
61961;BME280;47923;42.506;24.192;2023-03-01T00:42:54;96123.97;;;3.36;100.00
61961;BME280;47923;42.506;24.192;2023-03-01T00:45:19;95906.22;;;2.01;100.00
61961;BME280;47923;42.506;24.192;2023-03-01T00:47:45;96116.72;;;3.36;100.00
61961;BME280;47923;42.506;24.192;2023-03-01T00:50:11;96124.63;;;3.27;100.00
61961;BME280;47923;42.506;24.192;2023-03-01T00:52:37;96120.31;;;3.31;100.00
61961;BME280;47923;42.506;24.192;2023-03-01T00:55:03;96113.34;;;3.30;100.00
61961;BME280;47923;42.506;24.192;2023-03-01T00:57:29;96111.78;;;3.29;100.00
61961;BME280;47923;42.506;24.192;2023-03-01T00:59:55;96115.75;;;3.32;100.00
61961;BME280;47923;42.506;24.192;2023-03-01T01:02:21;95952.91;;;2.31;100.00
61961;BME280;47923;42.506;24.192;2023-03-01T01:04:46;96015.03;;;2.77;100.00
61961;BME280;47923;42.506;24.192;2023-03-01T01:07:13;96111.91;;;3.38;100.00
61961;BME280;47923;42.506;24.192;2023-03-01T01:09:39;96112.88;;;3.42;100.00
61961;BME280;47923;42.506;24.192;2023-03-01T01:12:05;96111.59;;;3.40;100.00
61961;BME280;47923;42.506;24.192;2023-03-01T01:14:31;96108.22;;;3.34;100.00
61961;BME280;47923;42.506;24.192;2023-03-01T01:16:57;95847.28;;;1.56;100.00
61961;BME280;47923;42.506;24.192;2023-03-01T01:19:23;96111.59;;;3.26;100.00
61961;BME280;47923;42.506;24.192;2023-03-01T01:21:49;95958.91;;;2.22;100.00
61961;BME280;47923;42.506;24.192;2023-03-01T01:24:15;96041.69;;;2.77;100.00
61961;BME280;47923;42.506;24.192;2023-03-01T01:26:41;96007.78;;;2.64;100.00
61961;BME280;47923;42.506;24.192;2023-03-01T01:29:07;96098.16;;;3.31;100.00
61961;BME280;47923;42.506;24.192;2023-03-01T01:31:35;96100.31;;;3.29;100.00
61961;BME280;47923;42.506;24.192;2023-03-01T01:34:04;95987.50;;;2.49;100.00
61961;BME280;47923;42.506;24.192;2023-03-01T01:36:30;96109.09;;;3.16;100.00
61961;BME280;47923;42.506;24.192;2023-03-01T01:38:56;96021.72;;;2.61;100.00
61961;BME280;47923;42.506;24.192;2023-03-01T01:41:22;96109.50;;;3.23;100.00
61961;BME280;47923;42.506;24.192;2023-03-01T01:46:43;95911.16;;;1.93;100.00
61961;BME280;47923;42.506;24.192;2023-03-01T01:51:48;96085.63;;;2.99;100.00
61961;BME280;47923;42.506;24.192;2023-03-01T01:54:23;95942.28;;;2.12;100.00
61961;BME280;47923;42.506;24.192;2023-03-01T01:56:58;96015.88;;;2.59;100.00
61961;BME280;47923;42.506;24.192;2023-03-01T01:59:24;96099.34;;;3.25;100.00
61961;BME280;47923;42.506;24.192;2023-03-01T02:01:51;96105.06;;;3.32;100.00
61961;BME280;47923;42.506;24.192;2023-03-01T02:04:18;96103.28;;;3.27;100.00
61961;BME280;47923;42.506;24.192;2023-03-01T02:07:09;96091.03;;;3.26;100.00
61961;BME280;47923;42.506;24.192;2023-03-01T02:09:38;96032.75;;;2.87;100.00
61961;BME280;47923;42.506;24.192;2023-03-01T02:12:05;96008.47;;;2.70;100.00
61961;BME280;47923;42.506;24.192;2023-03-01T02:14:30;96094.97;;;3.29;100.00
61961;BME280;47923;42.506;24.192;2023-03-01T02:16:56;95890.72;;;2.03;100.00
61961;BME280;47923;42.506;24.192;2023-03-01T02:22:28;96067.19;;;3.16;100.00
61961;BME280;47923;42.506;24.192;2023-03-01T02:30:11;96084.88;;;3.26;100.00
61961;BME280;47923;42.506;24.192;2023-03-01T02:32:41;96018.69;;;2.82;100.00
61961;BME280;47923;42.506;24.192;2023-03-01T02:35:12;96082.78;;;3.23;100.00
61961;BME280;47923;42.506;24.192;2023-03-01T02:37:39;96017.31;;;2.84;100.00
61961;BME280;47923;42.506;24.192;2023-03-01T02:40:11;96067.06;;;3.21;100.00
61961;BME280;47923;42.506;24.192;2023-03-01T02:42:48;96067.69;;;3.18;100.00
61961;BME280;47923;42.506;24.192;2023-03-01T02:45:15;96072.41;;;3.21;100.00
61961;BME280;47923;42.506;24.192;2023-03-01T02:47:40;96053.53;;;3.04;100.00
61961;BME280;47923;42.506;24.192;2023-03-01T02:53:11;96073.81;;;3.32;100.00
61961;BME280;47923;42.506;24.192;2023-03-01T02:55:40;96073.22;;;3.36;100.00
61961;BME280;47923;42.506;24.192;2023-03-01T02:58:05;96075.19;;;3.30;100.00
61961;BME280;47923;42.506;24.192;2023-03-01T03:00:36;96081.44;;;3.25;100.00
61961;BME280;47923;42.506;24.192;2023-03-01T03:03:06;96041.84;;;3.00;100.00
61961;BME280;47923;42.506;24.192;2023-03-01T03:05:32;96065.97;;;3.22;100.00
61961;BME280;47923;42.506;24.192;2023-03-01T03:08:00;95983.75;;;2.64;100.00
61961;BME280;47923;42.506;24.192;2023-03-01T03:10:28;95983.28;;;2.62;100.00
61961;BME280;47923;42.506;24.192;2023-03-01T03:12:59;96064.69;;;3.20;100.00
61961;BME280;47923;42.506;24.192;2023-03-01T03:15:25;96064.69;;;3.20;100.00
61961;BME280;47923;42.506;24.192;2023-03-01T03:17:52;95985.25;;;2.70;100.00
61961;BME280;47923;42.506;24.192;2023-03-01T03:20:20;96060.22;;;3.15;100.00
61961;BME280;47923;42.506;24.192;2023-03-01T03:22:49;96065.88;;;3.14;100.00
61961;BME280;47923;42.506;24.192;2023-03-01T03:25:19;96061.63;;;3.13;100.00
61961;BME280;47923;42.506;24.192;2023-03-01T03:27:47;96054.41;;;3.13;100.00
61961;BME280;47923;42.506;24.192;2023-03-01T03:30:15;95793.50;;;1.40;100.00
61961;BME280;47923;42.506;24.192;2023-03-01T03:32:43;96066.88;;;3.18;100.00
61961;BME280;47923;42.506;24.192;2023-03-01T03:35:28;95973.41;;;2.63;100.00
61961;BME280;47923;42.506;24.192;2023-03-01T03:37:58;96075.69;;;3.18;100.00
61961;BME280;47923;42.506;24.192;2023-03-01T03:40:39;95885.69;;;2.01;100.00
61961;BME280;47923;42.506;24.192;2023-03-01T03:43:15;96082.31;;;3.21;100.00
61961;BME280;47923;42.506;24.192;2023-03-01T03:48:25;96068.25;;;3.29;100.00
61961;BME280;47923;42.506;24.192;2023-03-01T03:50:55;96084.88;;;3.26;100.00
61961;BME280;47923;42.506;24.192;2023-03-01T03:53:22;96070.75;;;3.25;100.00
61961;BME280;47923;42.506;24.192;2023-03-01T03:55:48;95837.59;;;1.79;100.00
61961;BME280;47923;42.506;24.192;2023-03-01T03:58:15;95915.91;;;2.10;100.00
61961;BME280;47923;42.506;24.192;2023-03-01T04:03:45;95990.00;;;2.60;100.00
61961;BME280;47923;42.506;24.192;2023-03-01T04:06:13;95890.94;;;2.06;100.00
61961;BME280;47923;42.506;24.192;2023-03-01T04:08:39;96073.50;;;3.20;100.00
61961;BME280;47923;42.506;24.192;2023-03-01T04:11:05;96068.66;;;3.22;100.00
61961;BME280;47923;42.506;24.192;2023-03-01T04:13:51;96080.41;;;3.21;100.00
61961;BME280;47923;42.506;24.192;2023-03-01T04:16:17;96052.50;;;3.00;100.00
61961;BME280;47923;42.506;24.192;2023-03-01T04:18:43;96081.44;;;3.25;100.00
61961;BME280;47923;42.506;24.192;2023-03-01T04:21:09;96078.94;;;3.29;100.00
61961;BME280;47923;42.506;24.192;2023-03-01T04:23:36;96010.28;;;2.74;100.00
61961;BME280;47923;42.506;24.192;2023-03-01T04:26:02;96029.88;;;2.97;100.00
61961;BME280;47923;42.506;24.192;2023-03-01T04:28:36;96093.31;;;3.33;100.00
61961;BME280;47923;42.506;24.192;2023-03-01T04:31:07;96092.81;;;3.31;100.00
61961;BME280;47923;42.506;24.192;2023-03-01T04:33:40;96089.53;;;3.34;100.00
61961;BME280;47923;42.506;24.192;2023-03-01T04:36:07;96049.97;;;3.09;100.00
61961;BME280;47923;42.506;24.192;2023-03-01T04:38:34;96022.16;;;2.96;100.00
61961;BME280;47923;42.506;24.192;2023-03-01T04:41:01;96083.91;;;3.36;100.00
61961;BME280;47923;42.506;24.192;2023-03-01T04:43:28;96087.34;;;3.36;100.00
61961;BME280;47923;42.506;24.192;2023-03-01T04:45:54;96086.06;;;3.33;100.00
61961;BME280;47923;42.506;24.192;2023-03-01T04:48:19;96069.63;;;3.13;100.00
61961;BME280;47923;42.506;24.192;2023-03-01T04:50:45;95947.91;;;2.43;100.00
61961;BME280;47923;42.506;24.192;2023-03-01T04:53:10;96043.03;;;3.08;100.00
61961;BME280;47923;42.506;24.192;2023-03-01T04:55:35;96085.84;;;3.30;100.00
61961;BME280;47923;42.506;24.192;2023-03-01T04:58:01;96065.09;;;3.13;100.00
61961;BME280;47923;42.506;24.192;2023-03-01T05:00:26;96079.47;;;3.31;100.00
61961;BME280;47923;42.506;24.192;2023-03-01T05:02:57;95965.97;;;2.46;100.00
61961;BME280;47923;42.506;24.192;2023-03-01T05:05:28;96078.94;;;3.29;100.00
61961;BME280;47923;42.506;24.192;2023-03-01T05:07:56;96074.38;;;3.29;100.00
61961;BME280;47923;42.506;24.192;2023-03-01T05:10:23;96072.31;;;3.26;100.00
61961;BME280;47923;42.506;24.192;2023-03-01T05:12:49;96077.97;;;3.25;100.00
61961;BME280;47923;42.506;24.192;2023-03-01T05:15:14;96079.31;;;3.22;100.00
61961;BME280;47923;42.506;24.192;2023-03-01T05:17:40;95849.66;;;1.57;100.00
61961;BME280;47923;42.506;24.192;2023-03-01T05:20:06;96062.59;;;2.89;100.00
61961;BME280;47923;42.506;24.192;2023-03-01T05:22:35;95922.81;;;2.11;100.00
61961;BME280;47923;42.506;24.192;2023-03-01T05:25:01;96081.31;;;3.17;100.00
61961;BME280;47923;42.506;24.192;2023-03-01T05:27:27;96026.78;;;2.76;100.00
61961;BME280;47923;42.506;24.192;2023-03-01T05:29:52;96084.88;;;3.12;100.00
61961;BME280;47923;42.506;24.192;2023-03-01T05:32:18;95898.19;;;1.87;100.00
61961;BME280;47923;42.506;24.192;2023-03-01T05:34:43;95923.50;;;2.03;100.00
61961;BME280;47923;42.506;24.192;2023-03-01T05:37:12;96081.19;;;3.08;100.00
61961;BME280;47923;42.506;24.192;2023-03-01T05:39:37;96082.81;;;3.09;100.00
61961;BME280;47923;42.506;24.192;2023-03-01T05:42:03;96083.78;;;3.13;100.00
61961;BME280;47923;42.506;24.192;2023-03-01T05:44:28;96093.66;;;3.13;100.00
61961;BME280;47923;42.506;24.192;2023-03-01T05:46:54;96062.09;;;2.87;100.00
61961;BME280;47923;42.506;24.192;2023-03-01T05:49:21;96065.84;;;2.86;100.00
61961;BME280;47923;42.506;24.192;2023-03-01T05:51:50;96085.03;;;2.88;100.00
61961;BME280;47923;42.506;24.192;2023-03-01T05:54:16;95828.59;;;1.42;100.00
61961;BME280;47923;42.506;24.192;2023-03-01T05:56:42;95778.94;;;1.19;100.00
61961;BME280;47923;42.506;24.192;2023-03-01T05:59:08;96014.50;;;2.62;100.00
61961;BME280;47923;42.506;24.192;2023-03-01T06:01:35;95974.31;;;2.26;100.00
61961;BME280;47923;42.506;24.192;2023-03-01T06:04:01;96108.69;;;3.22;100.00
61961;BME280;47923;42.506;24.192;2023-03-01T06:06:27;95873.00;;;1.79;100.00
61961;BME280;47923;42.506;24.192;2023-03-01T06:08:53;95977.72;;;2.45;100.00
61961;BME280;47923;42.506;24.192;2023-03-01T06:11:19;96108.63;;;3.27;100.00
61961;BME280;47923;42.506;24.192;2023-03-01T06:13:45;96054.38;;;2.86;100.00
61961;BME280;47923;42.506;24.192;2023-03-01T06:16:11;96085.66;;;3.13;100.00
61961;BME280;47923;42.506;24.192;2023-03-01T06:18:37;96036.47;;;2.86;100.00
61961;BME280;47923;42.506;24.192;2023-03-01T06:21:04;96044.41;;;2.91;100.00
61961;BME280;47923;42.506;24.192;2023-03-01T06:23:31;95747.22;;;1.03;100.00
61961;BME280;47923;42.506;24.192;2023-03-01T06:25:56;95990.50;;;2.62;100.00
61961;BME280;47923;42.506;24.192;2023-03-01T06:28:22;96108.63;;;3.41;100.00
61961;BME280;47923;42.506;24.192;2023-03-01T06:30:47;96108.63;;;3.27;100.00
61961;BME280;47923;42.506;24.192;2023-03-01T06:33:13;95985.25;;;2.57;100.00
61961;BME280;47923;42.506;24.192;2023-03-01T06:35:39;96135.16;;;3.51;100.00
61961;BME280;47923;42.506;24.192;2023-03-01T06:38:05;96132.59;;;3.60;100.00
61961;BME280;47923;42.506;24.192;2023-03-01T06:40:31;96107.84;;;3.41;100.00
61961;BME280;47923;42.506;24.192;2023-03-01T06:42:58;96126.03;;;3.52;100.00
61961;BME280;47923;42.506;24.192;2023-03-01T06:45:23;96104.28;;;3.31;100.00
61961;BME280;47923;42.506;24.192;2023-03-01T06:47:49;96153.28;;;3.54;100.00
61961;BME280;47923;42.506;24.192;2023-03-01T06:50:16;95799.44;;;1.51;100.00
61961;BME280;47923;42.506;24.192;2023-03-01T06:52:42;95984.47;;;2.70;100.00
61961;BME280;47923;42.506;24.192;2023-03-01T06:55:10;96128.44;;;3.68;100.00
61961;BME280;47923;42.506;24.192;2023-03-01T06:57:36;95928.91;;;2.31;100.00
61961;BME280;47923;42.506;24.192;2023-03-01T07:00:03;96128.63;;;3.71;100.00
61961;BME280;47923;42.506;24.192;2023-03-01T07:02:29;96129.50;;;3.80;100.00
61961;BME280;47923;42.506;24.192;2023-03-01T07:04:54;95950.88;;;2.69;100.00
61961;BME280;47923;42.506;24.192;2023-03-01T07:07:20;96123.88;;;3.82;100.00
61961;BME280;47923;42.506;24.192;2023-03-01T07:09:46;95887.78;;;2.18;100.00
61961;BME280;47923;42.506;24.192;2023-03-01T07:12:12;95935.25;;;2.48;100.00
61961;BME280;47923;42.506;24.192;2023-03-01T07:14:37;96130.28;;;3.81;100.00
61961;BME280;47923;42.506;24.192;2023-03-01T07:17:03;96068.97;;;3.35;100.00
61961;BME280;47923;42.506;24.192;2023-03-01T07:19:28;95999.31;;;2.90;100.00
61961;BME280;47923;42.506;24.192;2023-03-01T07:21:54;96086.97;;;3.56;100.00
61961;BME280;47923;42.506;24.192;2023-03-01T07:24:21;96062.13;;;3.42;100.00
61961;BME280;47923;42.506;24.192;2023-03-01T07:26:50;96131.28;;;3.99;100.00
61961;BME280;47923;42.506;24.192;2023-03-01T07:29:16;96127.81;;;3.98;100.00
61961;BME280;47923;42.506;24.192;2023-03-01T07:31:42;96114.88;;;3.78;100.00
61961;BME280;47923;42.506;24.192;2023-03-01T07:34:07;96129.41;;;3.99;100.00
61961;BME280;47923;42.506;24.192;2023-03-01T07:36:32;96130.50;;;3.98;100.00
61961;BME280;47923;42.506;24.192;2023-03-01T07:38:58;95901.09;;;2.51;100.00
61961;BME280;47923;42.506;24.192;2023-03-01T07:41:24;96134.03;;;4.07;100.00
61961;BME280;47923;42.506;24.192;2023-03-01T07:43:50;96123.91;;;4.18;100.00
61961;BME280;47923;42.506;24.192;2023-03-01T07:46:15;96126.88;;;4.16;100.00
61961;BME280;47923;42.506;24.192;2023-03-01T07:48:40;96041.44;;;3.62;100.00
61961;BME280;47923;42.506;24.192;2023-03-01T07:51:07;96131.63;;;4.33;100.00
61961;BME280;47923;42.506;24.192;2023-03-01T07:53:33;96130.13;;;4.41;100.00
61961;BME280;47923;42.506;24.192;2023-03-01T07:56:10;96131.69;;;4.42;100.00
61961;BME280;47923;42.506;24.192;2023-03-01T07:58:37;95527.66;;;0.32;100.00
61961;BME280;47923;42.506;24.192;2023-03-01T08:01:05;96118.06;;;4.16;100.00
61961;BME280;47923;42.506;24.192;2023-03-01T08:03:31;96059.44;;;3.70;100.00
61961;BME280;47923;42.506;24.192;2023-03-01T08:05:59;95987.66;;;3.27;100.00
61961;BME280;47923;42.506;24.192;2023-03-01T08:08:25;96107.81;;;4.32;100.00
61961;BME280;47923;42.506;24.192;2023-03-01T08:10:51;96082.16;;;4.31;100.00
61961;BME280;47923;42.506;24.192;2023-03-01T08:13:16;95825.25;;;2.79;100.00
61961;BME280;47923;42.506;24.192;2023-03-01T08:15:47;96024.22;;;4.04;100.00
61961;BME280;47923;42.506;24.192;2023-03-01T08:18:14;95648.44;;;1.65;100.00
61961;BME280;47923;42.506;24.192;2023-03-01T08:20:39;95860.72;;;2.93;99.44
61961;BME280;47923;42.506;24.192;2023-03-01T08:23:05;95974.22;;;3.82;99.29
61961;BME280;47923;42.506;24.192;2023-03-01T08:25:30;95821.75;;;3.06;100.00
61961;BME280;47923;42.506;24.192;2023-03-01T08:27:56;96055.41;;;4.31;98.24
61961;BME280;47923;42.506;24.192;2023-03-01T08:30:21;96095.34;;;4.63;97.12
61961;BME280;47923;42.506;24.192;2023-03-01T08:32:49;96065.09;;;4.40;97.46
61961;BME280;47923;42.506;24.192;2023-03-01T08:35:15;96053.50;;;4.09;96.95
61961;BME280;47923;42.506;24.192;2023-03-01T08:37:40;96107.31;;;4.43;97.69
61961;BME280;47923;42.506;24.192;2023-03-01T08:40:06;96105.16;;;4.54;97.76
61961;BME280;47923;42.506;24.192;2023-03-01T08:42:33;96109.88;;;4.71;98.65
61961;BME280;47923;42.506;24.192;2023-03-01T08:44:58;96112.13;;;4.78;98.51
61961;BME280;47923;42.506;24.192;2023-03-01T08:47:23;96101.84;;;4.71;98.43
61961;BME280;47923;42.506;24.192;2023-03-01T08:49:50;96085.97;;;4.52;98.03
61961;BME280;47923;42.506;24.192;2023-03-01T08:52:16;95945.44;;;3.65;97.90
61961;BME280;47923;42.506;24.192;2023-03-01T08:54:41;96107.78;;;4.90;98.33
61961;BME280;47923;42.506;24.192;2023-03-01T08:57:07;96054.69;;;4.61;97.59
61961;BME280;47923;42.506;24.192;2023-03-01T08:59:34;95866.47;;;3.37;97.22
61961;BME280;47923;42.506;24.192;2023-03-01T09:02:05;96095.13;;;4.82;98.36
61961;BME280;47923;42.506;24.192;2023-03-01T09:04:33;96119.09;;;5.10;97.94
61961;BME280;47923;42.506;24.192;2023-03-01T09:06:59;95895.06;;;3.36;97.10
61961;BME280;47923;42.506;24.192;2023-03-01T09:09:24;95883.03;;;3.25;97.11
61961;BME280;47923;42.506;24.192;2023-03-01T09:11:50;96112.06;;;4.69;97.76
61961;BME280;47923;42.506;24.192;2023-03-01T09:14:16;96086.94;;;4.56;97.43
61961;BME280;47923;42.506;24.192;2023-03-01T09:16:42;96111.94;;;4.96;97.71
61961;BME280;47923;42.506;24.192;2023-03-01T09:19:08;95903.53;;;3.74;97.28
61961;BME280;47923;42.506;24.192;2023-03-01T09:21:33;96113.91;;;5.13;96.08
61961;BME280;47923;42.506;24.192;2023-03-01T09:23:59;96111.53;;;5.12;95.00
61961;BME280;47923;42.506;24.192;2023-03-01T09:26:24;96103.84;;;5.19;94.51
61961;BME280;47923;42.506;24.192;2023-03-01T09:28:52;96098.97;;;5.21;95.25
61961;BME280;47923;42.506;24.192;2023-03-01T09:31:20;96005.38;;;4.54;95.02
61961;BME280;47923;42.506;24.192;2023-03-01T09:33:47;96105.38;;;5.42;95.63
61961;BME280;47923;42.506;24.192;2023-03-01T09:36:19;96100.38;;;5.49;95.17
61961;BME280;47923;42.506;24.192;2023-03-01T09:38:46;96103.97;;;5.36;93.50
61961;BME280;47923;42.506;24.192;2023-03-01T09:43:56;96057.16;;;5.03;93.26
61961;BME280;47923;42.506;24.192;2023-03-01T09:46:25;96092.63;;;5.48;92.05
61961;BME280;47923;42.506;24.192;2023-03-01T09:48:57;95838.25;;;3.67;92.20
61961;BME280;47923;42.506;24.192;2023-03-01T09:51:31;96095.00;;;5.49;93.06
61961;BME280;47923;42.506;24.192;2023-03-01T09:53:57;95508.53;;;1.81;91.31
61961;BME280;47923;42.506;24.192;2023-03-01T10:01:50;96052.56;;;5.43;90.46
61961;BME280;47923;42.506;24.192;2023-03-01T10:04:27;96073.97;;;5.74;90.36
61961;BME280;47923;42.506;24.192;2023-03-01T10:09:46;96039.69;;;5.53;90.91
61961;BME280;47923;42.506;24.192;2023-03-01T10:12:18;96061.81;;;5.68;92.15
61961;BME280;47923;42.506;24.192;2023-03-01T10:17:37;96067.00;;;5.64;91.72
61961;BME280;47923;42.506;24.192;2023-03-01T10:20:23;96035.28;;;5.58;90.70
61961;BME280;47923;42.506;24.192;2023-03-01T10:22:50;95960.28;;;5.01;89.78
61961;BME280;47923;42.506;24.192;2023-03-01T10:30:40;96015.78;;;5.74;91.09
61961;BME280;47923;42.506;24.192;2023-03-01T10:33:24;95758.78;;;4.12;89.75
61961;BME280;47923;42.506;24.192;2023-03-01T10:35:50;96044.03;;;5.89;90.19
61961;BME280;47923;42.506;24.192;2023-03-01T10:38:16;96044.28;;;5.62;90.83
61961;BME280;47923;42.506;24.192;2023-03-01T10:40:57;95990.25;;;5.20;92.45
61961;BME280;47923;42.506;24.192;2023-03-01T10:43:30;96042.28;;;5.27;94.27
61961;BME280;47923;42.506;24.192;2023-03-01T10:45:56;96036.63;;;5.29;95.17
61961;BME280;47923;42.506;24.192;2023-03-01T10:48:24;96041.19;;;5.28;94.48
61961;BME280;47923;42.506;24.192;2023-03-01T10:51:05;95762.38;;;3.45;93.98
61961;BME280;47923;42.506;24.192;2023-03-01T10:53:37;96009.78;;;4.81;95.11
61961;BME280;47923;42.506;24.192;2023-03-01T10:56:13;96032.38;;;4.97;96.14
61961;BME280;47923;42.506;24.192;2023-03-01T10:58:58;96008.94;;;5.03;96.72
61961;BME280;47923;42.506;24.192;2023-03-01T11:01:33;96022.41;;;5.28;96.14
61961;BME280;47923;42.506;24.192;2023-03-01T11:06:35;96031.31;;;5.07;95.91
61961;BME280;47923;42.506;24.192;2023-03-01T11:09:20;96012.03;;;4.87;96.62
61961;BME280;47923;42.506;24.192;2023-03-01T11:11:50;95984.56;;;4.73;96.80
61961;BME280;47923;42.506;24.192;2023-03-01T11:14:29;96020.28;;;4.99;96.55
61961;BME280;47923;42.506;24.192;2023-03-01T11:17:04;96009.44;;;5.13;97.08
61961;BME280;47923;42.506;24.192;2023-03-01T11:19:31;95916.47;;;4.57;96.82
61961;BME280;47923;42.506;24.192;2023-03-01T11:24:44;95925.31;;;4.66;96.87
61961;BME280;47923;42.506;24.192;2023-03-01T11:27:38;95922.63;;;4.57;97.71
61961;BME280;47923;42.506;24.192;2023-03-01T11:30:31;96001.22;;;5.01;97.66
61961;BME280;47923;42.506;24.192;2023-03-01T11:36:10;95709.69;;;3.15;97.67
61961;BME280;47923;42.506;24.192;2023-03-01T11:38:39;95976.25;;;4.83;98.65
61961;BME280;47923;42.506;24.192;2023-03-01T11:41:08;95970.72;;;4.80;98.90
61961;BME280;47923;42.506;24.192;2023-03-01T11:43:56;95973.53;;;4.75;98.89
61961;BME280;47923;42.506;24.192;2023-03-01T11:52:17;95939.16;;;4.59;98.80
61961;BME280;47923;42.506;24.192;2023-03-01T12:10:52;95973.22;;;4.76;100.00
61961;BME280;47923;42.506;24.192;2023-03-01T12:21:26;95867.63;;;4.42;100.00
61961;BME280;47923;42.506;24.192;2023-03-01T12:26:30;95968.47;;;5.13;100.00
61961;BME280;47923;42.506;24.192;2023-03-01T12:31:57;95961.22;;;5.05;99.79
61961;BME280;47923;42.506;24.192;2023-03-01T12:49:10;95953.22;;;4.74;100.00
61961;BME280;47923;42.506;24.192;2023-03-01T12:51:15;95957.00;;;4.72;100.00
61961;BME280;47923;42.506;24.192;2023-03-01T12:53:47;95957.47;;;4.75;100.00
61961;BME280;47923;42.506;24.192;2023-03-01T12:56:17;95950.34;;;4.70;100.00
61961;BME280;47923;42.506;24.192;2023-03-01T12:59:38;95901.72;;;4.37;99.95
61961;BME280;47923;42.506;24.192;2023-03-01T13:02:19;95811.34;;;3.85;100.00
61961;BME280;47923;42.506;24.192;2023-03-01T13:07:37;95923.09;;;4.59;100.00
61961;BME280;47923;42.506;24.192;2023-03-01T13:13:12;95958.09;;;4.71;100.00
61961;BME280;47923;42.506;24.192;2023-03-01T13:15:40;95958.09;;;4.71;100.00
61961;BME280;47923;42.506;24.192;2023-03-01T13:26:11;95960.81;;;4.49;100.00
61961;BME280;47923;42.506;24.192;2023-03-01T13:33:58;95925.09;;;4.23;100.00
61961;BME280;47923;42.506;24.192;2023-03-01T13:46:57;95946.06;;;4.60;100.00
61961;BME280;47923;42.506;24.192;2023-03-01T13:49:27;95953.94;;;4.57;100.00
61961;BME280;47923;42.506;24.192;2023-03-01T13:51:54;95962.03;;;4.43;100.00
61961;BME280;47923;42.506;24.192;2023-03-01T13:54:29;95955.59;;;4.44;100.00
61961;BME280;47923;42.506;24.192;2023-03-01T13:56:58;95781.31;;;3.35;100.00
61961;BME280;47923;42.506;24.192;2023-03-01T13:59:24;95932.84;;;4.33;100.00
61961;BME280;47923;42.506;24.192;2023-03-01T14:02:00;95936.31;;;4.56;100.00
61961;BME280;47923;42.506;24.192;2023-03-01T14:04:31;95895.41;;;4.33;100.00
61961;BME280;47923;42.506;24.192;2023-03-01T14:07:18;95933.00;;;4.59;100.00
61961;BME280;47923;42.506;24.192;2023-03-01T14:09:45;95912.56;;;4.32;100.00
61961;BME280;47923;42.506;24.192;2023-03-01T14:17:40;95956.38;;;4.44;100.00
61961;BME280;47923;42.506;24.192;2023-03-01T14:20:12;95958.25;;;4.44;100.00
61961;BME280;47923;42.506;24.192;2023-03-01T14:22:41;95959.88;;;4.54;100.00
61961;BME280;47923;42.506;24.192;2023-03-01T14:25:27;95955.97;;;4.60;100.00
61961;BME280;47923;42.506;24.192;2023-03-01T14:28:19;95792.47;;;3.37;100.00
61961;BME280;47923;42.506;24.192;2023-03-01T14:30:46;95959.13;;;4.62;100.00
61961;BME280;47923;42.506;24.192;2023-03-01T14:33:27;95898.66;;;4.21;100.00
61961;BME280;47923;42.506;24.192;2023-03-01T14:36:10;95958.97;;;4.58;100.00
61961;BME280;47923;42.506;24.192;2023-03-01T14:38:38;95960.38;;;4.56;100.00
61961;BME280;47923;42.506;24.192;2023-03-01T14:43:49;95967.88;;;4.45;100.00
61961;BME280;47923;42.506;24.192;2023-03-01T14:46:20;95956.56;;;4.26;100.00
61961;BME280;47923;42.506;24.192;2023-03-01T14:48:51;95965.66;;;4.47;100.00
61961;BME280;47923;42.506;24.192;2023-03-01T14:51:18;95958.78;;;4.55;100.00
61961;BME280;47923;42.506;24.192;2023-03-01T14:53:44;95814.66;;;3.60;100.00
61961;BME280;47923;42.506;24.192;2023-03-01T14:56:15;95962.56;;;4.54;100.00
61961;BME280;47923;42.506;24.192;2023-03-01T14:58:43;95960.81;;;4.49;100.00
61961;BME280;47923;42.506;24.192;2023-03-01T15:01:14;95896.69;;;4.04;100.00
61961;BME280;47923;42.506;24.192;2023-03-01T15:03:43;95959.53;;;4.47;100.00
61961;BME280;47923;42.506;24.192;2023-03-01T15:06:10;95964.09;;;4.46;100.00
61961;BME280;47923;42.506;24.192;2023-03-01T15:08:41;95670.84;;;2.41;100.00
61961;BME280;47923;42.506;24.192;2023-03-01T15:13:38;95848.16;;;3.66;100.00
61961;BME280;47923;42.506;24.192;2023-03-01T15:18:32;95909.53;;;4.02;100.00
61961;BME280;47923;42.506;24.192;2023-03-01T15:21:23;95874.44;;;3.73;100.00
61961;BME280;47923;42.506;24.192;2023-03-01T15:23:54;95859.56;;;3.58;100.00